createdAt,value
2023-01-29T00:02:05.956Z,80.53
2023-01-29T00:04:34.211Z,80.45
2023-01-29T00:07:01.957Z,80.38
2023-01-29T00:09:29.727Z,80.33
2023-01-29T00:11:57.381Z,80.07
2023-01-29T00:14:26.684Z,79.71
2023-01-29T00:16:54.908Z,79.52
2023-01-29T00:19:22.723Z,79.58
2023-01-29T00:21:50.385Z,79.81
2023-01-29T00:24:18.177Z,79.57
2023-01-29T00:26:46.017Z,79.66
2023-01-29T00:29:14.088Z,79.40
2023-01-29T00:31:42.095Z,79.37
2023-01-29T00:34:09.919Z,79.46
2023-01-29T00:36:37.581Z,79.49
2023-01-29T00:39:10.974Z,79.57
2023-01-29T00:41:57.482Z,79.48
2023-01-29T00:44:43.886Z,79.31
2023-01-29T00:47:30.760Z,79.31
2023-01-29T00:49:58.562Z,79.26
2023-01-29T00:52:26.371Z,79.48
2023-01-29T00:54:54.188Z,79.59
2023-01-29T00:57:21.951Z,79.78
2023-01-29T00:59:49.715Z,79.93
2023-01-29T01:02:36.117Z,79.75
2023-01-29T01:05:03.983Z,79.70
2023-01-29T01:07:31.645Z,79.73
2023-01-29T01:10:18.552Z,80.00
2023-01-29T01:12:46.427Z,79.94
2023-01-29T01:15:14.195Z,80.11
2023-01-29T01:17:41.951Z,79.69
2023-01-29T01:20:09.820Z,79.55
2023-01-29T01:22:37.479Z,79.55
2023-01-29T01:25:05.140Z,79.57
2023-01-29T01:27:32.903Z,79.55
2023-01-29T01:30:00.665Z,79.35
2023-01-29T01:32:28.336Z,79.08
2023-01-29T01:34:56.095Z,79.30
2023-01-29T01:37:23.754Z,79.25
2023-01-29T01:39:51.416Z,78.98
2023-01-29T01:42:19.079Z,78.74
2023-01-29T01:44:46.739Z,78.29
2023-01-29T01:47:15.732Z,78.04
2023-01-29T01:49:43.395Z,77.80
2023-01-29T01:52:11.158Z,77.70
2023-01-29T01:54:38.790Z,77.83
2023-01-29T01:57:09.564Z,77.93
2023-01-29T01:59:37.318Z,77.67
2023-01-29T02:02:24.048Z,77.48
2023-01-29T02:05:10.785Z,77.69
2023-01-29T02:07:57.439Z,77.63
2023-01-29T02:10:25.408Z,77.66
2023-01-29T02:12:53.177Z,77.49
2023-01-29T02:15:20.940Z,77.26
2023-01-29T02:17:48.747Z,77.48
2023-01-29T02:20:16.657Z,77.37
2023-01-29T02:22:44.533Z,77.09
2023-01-29T02:25:12.400Z,77.19
2023-01-29T02:27:40.167Z,77.28
2023-01-29T02:30:07.934Z,76.82
2023-01-29T02:32:35.901Z,76.51
2023-01-29T02:35:22.301Z,76.52
2023-01-29T02:37:49.960Z,76.31
2023-01-29T02:40:17.869Z,75.69
2023-01-29T02:42:45.898Z,76.38
2023-01-29T02:45:13.562Z,76.68
2023-01-29T02:47:41.322Z,76.92
2023-01-29T02:50:09.090Z,76.92
2023-01-29T02:52:36.850Z,77.10
2023-01-29T02:55:05.024Z,77.06
2023-01-29T02:57:32.794Z,76.99
2023-01-29T03:00:00.452Z,76.58
2023-01-29T03:02:28.230Z,76.43
2023-01-29T03:04:55.978Z,76.39
2023-01-29T03:07:43.093Z,76.60
2023-01-29T03:10:10.859Z,76.68
2023-01-29T03:12:38.520Z,76.76
2023-01-29T03:15:12.440Z,76.76
2023-01-29T03:17:40.193Z,76.64
2023-01-29T03:20:08.366Z,76.74
2023-01-29T03:22:36.024Z,76.74
2023-01-29T03:25:22.631Z,76.62
2023-01-29T03:28:09.337Z,76.27
2023-01-29T03:30:55.791Z,75.58
2023-01-29T03:33:23.505Z,74.61
2023-01-29T03:35:52.194Z,73.95
2023-01-29T03:38:19.956Z,74.03
2023-01-29T03:40:47.624Z,73.75
2023-01-29T03:43:15.378Z,72.95
2023-01-29T03:45:43.207Z,72.48
2023-01-29T03:48:11.111Z,72.97
2023-01-29T03:50:38.975Z,72.98
2023-01-29T03:53:06.749Z,73.42
2023-01-29T03:55:34.509Z,73.52
2023-01-29T03:58:02.269Z,73.77
2023-01-29T04:00:29.934Z,73.81
2023-01-29T04:02:57.695Z,73.46
2023-01-29T04:05:25.567Z,73.66
2023-01-29T04:07:53.323Z,74.00
2023-01-29T04:10:21.089Z,74.09
2023-01-29T04:12:48.865Z,74.16
2023-01-29T04:15:16.723Z,73.85
2023-01-29T04:17:44.481Z,73.78
2023-01-29T04:20:12.246Z,73.90
2023-01-29T04:22:39.914Z,73.49
2023-01-29T04:25:08.798Z,73.52
2023-01-29T04:27:36.561Z,72.99
2023-01-29T04:30:04.329Z,72.81
2023-01-29T04:32:32.101Z,72.74
2023-01-29T04:34:59.854Z,72.24
2023-01-29T04:37:27.623Z,72.04
2023-01-29T04:39:55.486Z,72.19
2023-01-29T04:42:23.249Z,71.98
2023-01-29T04:44:50.905Z,72.29
2023-01-29T04:47:18.819Z,72.37
2023-01-29T04:49:46.539Z,72.40
2023-01-29T04:52:14.199Z,72.23
2023-01-29T04:54:41.861Z,72.35
2023-01-29T04:57:09.933Z,71.74
2023-01-29T04:59:37.697Z,72.24
2023-01-29T05:02:05.460Z,71.79
2023-01-29T05:04:33.128Z,71.51
2023-01-29T05:07:00.886Z,71.66
2023-01-29T05:09:28.556Z,71.72
2023-01-29T05:11:56.314Z,72.18
2023-01-29T05:14:24.079Z,72.45
2023-01-29T05:16:51.740Z,72.01
2023-01-29T05:19:19.502Z,71.88
2023-01-29T05:21:47.167Z,72.07
2023-01-29T05:24:14.912Z,72.28
2023-01-29T05:27:01.228Z,71.85
2023-01-29T05:29:28.888Z,72.01
2023-01-29T05:31:56.606Z,71.84
2023-01-29T05:34:24.418Z,72.27
2023-01-29T05:36:52.189Z,72.10
2023-01-29T05:39:19.948Z,71.70
2023-01-29T05:41:47.710Z,71.90
2023-01-29T05:44:15.592Z,71.77
2023-01-29T05:46:44.308Z,71.63
2023-01-29T05:49:12.123Z,70.11
2023-01-29T05:51:39.888Z,70.26
2023-01-29T05:54:07.655Z,70.07
2023-01-29T05:56:35.414Z,70.58
2023-01-29T05:59:03.294Z,70.94
2023-01-29T06:01:31.040Z,70.67
2023-01-29T06:03:58.911Z,70.52
2023-01-29T06:06:26.573Z,70.61
2023-01-29T06:08:54.336Z,70.71
2023-01-29T06:11:22.099Z,70.18
2023-01-29T06:13:49.865Z,70.50
2023-01-29T06:16:17.708Z,70.57
2023-01-29T06:18:45.598Z,70.93
2023-01-29T06:21:13.365Z,69.83
2023-01-29T06:23:41.124Z,70.26
2023-01-29T06:26:08.891Z,70.43
2023-01-29T06:28:36.654Z,70.20
2023-01-29T06:31:23.771Z,70.32
2023-01-29T06:33:52.049Z,70.45
2023-01-29T06:36:19.816Z,70.40
2023-01-29T06:38:47.702Z,70.20
2023-01-29T06:41:15.543Z,70.47
2023-01-29T06:43:43.303Z,70.20
2023-01-29T06:46:10.968Z,69.90
2023-01-29T06:48:38.737Z,70.36
2023-01-29T06:51:06.497Z,70.96
2023-01-29T06:53:34.259Z,70.57
2023-01-29T06:56:02.025Z,70.29
2023-01-29T06:58:29.825Z,70.66
2023-01-29T07:00:57.901Z,71.22
2023-01-29T07:03:25.724Z,70.80
2023-01-29T07:05:53.591Z,70.69
2023-01-29T07:08:22.991Z,70.81
2023-01-29T07:10:50.962Z,70.50
2023-01-29T07:13:18.724Z,70.47
2023-01-29T07:15:46.487Z,70.19
2023-01-29T07:18:14.267Z,70.33
2023-01-29T07:20:42.119Z,70.51
2023-01-29T07:23:09.885Z,70.47
2023-01-29T07:25:37.646Z,70.62
2023-01-29T07:28:05.309Z,70.48
2023-01-29T07:30:33.031Z,70.74
2023-01-29T07:33:00.736Z,71.31
2023-01-29T07:35:28.496Z,71.06
2023-01-29T07:37:56.266Z,70.63
2023-01-29T07:40:24.026Z,70.48
2023-01-29T07:42:51.789Z,70.82
2023-01-29T07:45:19.552Z,70.76
2023-01-29T07:47:47.225Z,70.89
2023-01-29T07:50:15.373Z,70.87
2023-01-29T07:52:43.358Z,71.28
2023-01-29T07:55:11.018Z,71.16
2023-01-29T07:57:38.796Z,71.11
2023-01-29T08:00:06.545Z,70.79
2023-01-29T08:02:34.391Z,70.75
2023-01-29T08:05:02.175Z,70.53
2023-01-29T08:07:29.939Z,70.41
2023-01-29T08:09:57.708Z,69.95
2023-01-29T08:12:25.467Z,69.82
2023-01-29T08:14:53.232Z,70.14
2023-01-29T08:17:21.000Z,70.64
2023-01-29T08:19:48.761Z,70.61
2023-01-29T08:22:16.840Z,70.71
2023-01-29T08:24:53.716Z,70.64
2023-01-29T08:27:27.927Z,70.38
2023-01-29T08:29:55.685Z,70.36
2023-01-29T08:32:23.363Z,70.32
2023-01-29T08:34:51.130Z,70.11
2023-01-29T08:37:18.887Z,69.87
2023-01-29T08:39:46.657Z,70.17
2023-01-29T08:42:14.403Z,69.72
2023-01-29T08:44:42.169Z,69.44
2023-01-29T08:47:09.828Z,69.49
2023-01-29T08:49:37.598Z,69.42
2023-01-29T08:52:05.254Z,69.82
2023-01-29T08:54:33.017Z,69.71
2023-01-29T08:57:00.782Z,69.51
2023-01-29T08:59:28.445Z,69.02
2023-01-29T09:01:56.208Z,69.02
2023-01-29T09:04:23.868Z,68.66
2023-01-29T09:06:51.632Z,68.27
2023-01-29T09:09:19.294Z,68.53
2023-01-29T09:11:47.057Z,68.60
2023-01-29T09:14:14.926Z,67.93
2023-01-29T09:16:42.812Z,67.92
2023-01-29T09:19:10.556Z,68.01
2023-01-29T09:21:38.224Z,68.10
2023-01-29T09:24:05.979Z,68.18
2023-01-29T09:26:33.672Z,68.13
2023-01-29T09:29:01.510Z,67.68
2023-01-29T09:31:29.344Z,67.78
2023-01-29T09:33:57.239Z,68.36
2023-01-29T09:36:25.010Z,68.21
2023-01-29T09:38:52.767Z,67.73
2023-01-29T09:41:20.427Z,67.96
2023-01-29T09:43:48.500Z,67.76
2023-01-29T09:46:16.312Z,67.53
2023-01-29T09:48:44.133Z,68.05
2023-01-29T09:51:11.895Z,67.54
2023-01-29T09:53:39.711Z,66.78
2023-01-29T09:56:07.421Z,66.83
2023-01-29T09:58:35.915Z,67.19
2023-01-29T10:01:03.720Z,67.07
2023-01-29T10:03:31.430Z,66.82
2023-01-29T10:05:59.092Z,66.66
2023-01-29T10:08:26.964Z,67.17
2023-01-29T10:10:55.334Z,67.32
2023-01-29T10:13:23.102Z,66.99
2023-01-29T10:15:50.968Z,66.94
2023-01-29T10:18:18.749Z,66.85
2023-01-29T10:20:46.502Z,66.92
2023-01-29T10:23:14.260Z,67.02
2023-01-29T10:25:42.037Z,66.79
2023-01-29T10:28:09.787Z,66.50
2023-01-29T10:30:37.565Z,67.10
2023-01-29T10:33:05.315Z,66.38
2023-01-29T10:35:33.076Z,67.10
2023-01-29T10:38:00.840Z,66.57
2023-01-29T10:40:28.502Z,65.96
2023-01-29T10:42:57.494Z,66.02
2023-01-29T10:45:25.155Z,66.16
2023-01-29T10:47:53.116Z,66.54
2023-01-29T10:50:20.995Z,66.09
2023-01-29T10:52:50.110Z,66.20
2023-01-29T10:55:18.120Z,66.59
2023-01-29T10:57:46.126Z,66.72
2023-01-29T11:00:13.903Z,66.77
2023-01-29T11:02:41.742Z,66.83
2023-01-29T11:05:10.313Z,66.55
2023-01-29T11:07:38.122Z,66.77
2023-01-29T11:10:05.870Z,67.35
2023-01-29T11:12:33.946Z,66.88
2023-01-29T11:15:01.702Z,66.75
2023-01-29T11:17:29.479Z,66.92
2023-01-29T11:19:57.192Z,67.06
2023-01-29T11:22:24.993Z,66.90
2023-01-29T11:24:52.779Z,66.85
2023-01-29T11:27:20.521Z,67.44
2023-01-29T11:29:48.409Z,67.59
2023-01-29T11:32:16.151Z,67.94
2023-01-29T11:34:43.918Z,68.02
2023-01-29T11:37:11.684Z,68.12
2023-01-29T11:39:39.442Z,67.70
2023-01-29T11:42:13.502Z,67.06
2023-01-29T11:44:41.829Z,66.98
2023-01-29T11:47:09.495Z,67.28
2023-01-29T11:49:37.667Z,67.45
2023-01-29T11:52:05.337Z,66.77
2023-01-29T11:54:33.603Z,66.47
2023-01-29T11:57:01.572Z,66.71
2023-01-29T11:59:29.244Z,66.88
2023-01-29T12:01:57.210Z,67.49
2023-01-29T12:04:24.965Z,67.63
2023-01-29T12:06:53.352Z,67.32
2023-01-29T12:09:21.113Z,67.13
2023-01-29T12:11:48.872Z,66.87
2023-01-29T12:14:16.636Z,66.67
2023-01-29T12:16:44.403Z,66.84
2023-01-29T12:19:12.169Z,67.04
2023-01-29T12:21:40.132Z,67.36
2023-01-29T12:24:07.910Z,67.16
2023-01-29T12:26:35.713Z,66.98
2023-01-29T12:29:03.526Z,67.12
2023-01-29T12:31:31.201Z,67.34
2023-01-29T12:33:58.954Z,67.50
2023-01-29T12:36:26.717Z,67.54
2023-01-29T12:38:54.480Z,67.73
2023-01-29T12:41:22.344Z,67.40
2023-01-29T12:43:50.111Z,67.57
2023-01-29T12:46:17.771Z,67.74
2023-01-29T12:48:45.537Z,67.58
2023-01-29T12:51:13.301Z,67.65
2023-01-29T12:53:41.062Z,67.33
2023-01-29T12:56:08.724Z,67.53
2023-01-29T12:58:36.805Z,67.21
2023-01-29T13:01:04.612Z,67.54
2023-01-29T13:03:32.701Z,67.81
2023-01-29T13:06:00.497Z,68.22
2023-01-29T13:08:28.260Z,67.81
2023-01-29T13:10:55.926Z,68.19
2023-01-29T13:13:23.685Z,68.15
2023-01-29T13:15:51.456Z,68.24
2023-01-29T13:18:19.213Z,67.88
2023-01-29T13:20:46.874Z,67.48
2023-01-29T13:23:14.537Z,67.59
2023-01-29T13:25:42.305Z,67.91
2023-01-29T13:28:09.962Z,67.80
2023-01-29T13:30:37.656Z,67.96
2023-01-29T13:33:12.103Z,68.37
2023-01-29T13:35:40.528Z,68.45
2023-01-29T13:38:08.185Z,68.45
2023-01-29T13:40:36.050Z,68.77
2023-01-29T13:43:04.225Z,68.63
2023-01-29T13:45:31.992Z,68.67
2023-01-29T13:47:59.621Z,68.78
2023-01-29T13:50:27.618Z,68.83
2023-01-29T13:52:55.280Z,68.51
2023-01-29T13:55:24.181Z,68.73
2023-01-29T13:57:54.705Z,68.67
2023-01-29T14:00:31.072Z,69.07
2023-01-29T14:02:58.829Z,68.92
2023-01-29T14:05:26.703Z,69.01
2023-01-29T14:07:54.459Z,68.99
2023-01-29T14:10:22.224Z,69.07
2023-01-29T14:12:49.988Z,68.75
2023-01-29T14:15:20.989Z,68.84
2023-01-29T14:17:49.207Z,68.76
2023-01-29T14:20:16.969Z,68.70
2023-01-29T14:22:44.726Z,68.68
2023-01-29T14:25:12.389Z,68.25
2023-01-29T14:27:40.161Z,68.11
2023-01-29T14:30:07.931Z,68.50
2023-01-29T14:32:35.784Z,67.71
2023-01-29T14:35:03.445Z,67.94
2023-01-29T14:37:31.253Z,67.56
2023-01-29T14:39:58.980Z,67.39
2023-01-29T14:42:26.634Z,67.33
2023-01-29T14:44:54.295Z,67.71
2023-01-29T14:47:22.062Z,67.45
2023-01-29T14:49:49.825Z,67.62
2023-01-29T14:52:17.799Z,67.76
2023-01-29T14:54:45.461Z,67.66
2023-01-29T14:57:13.220Z,68.04
2023-01-29T14:59:40.881Z,68.11
2023-01-29T15:02:08.541Z,67.46
2023-01-29T15:04:36.305Z,67.76
2023-01-29T15:07:06.736Z,67.86
2023-01-29T15:09:36.661Z,68.11
2023-01-29T15:12:04.815Z,67.87
2023-01-29T15:14:32.614Z,67.88
2023-01-29T15:17:00.358Z,67.70
2023-01-29T15:19:28.111Z,67.83
2023-01-29T15:21:55.874Z,67.84
2023-01-29T15:24:23.741Z,68.12
2023-01-29T15:26:51.529Z,68.15
2023-01-29T15:29:19.370Z,68.38
2023-01-29T15:31:48.005Z,68.58
2023-01-29T15:34:15.921Z,68.42
2023-01-29T15:36:43.686Z,68.33
2023-01-29T15:39:11.350Z,68.50
2023-01-29T15:41:39.114Z,68.38
2023-01-29T15:44:06.774Z,68.28
2023-01-29T15:46:34.536Z,68.50
2023-01-29T15:49:02.301Z,68.30
2023-01-29T15:51:29.971Z,68.67
2023-01-29T15:53:57.725Z,68.54
2023-01-29T15:56:25.387Z,68.80
2023-01-29T15:58:53.158Z,68.82
2023-01-29T16:01:20.859Z,68.85
2023-01-29T16:03:48.575Z,69.10
2023-01-29T16:06:16.545Z,69.23
2023-01-29T16:08:44.206Z,69.33
2023-01-29T16:11:11.866Z,69.11
2023-01-29T16:13:39.544Z,69.18
2023-01-29T16:16:08.689Z,68.97
2023-01-29T16:18:36.923Z,68.90
2023-01-29T16:21:06.711Z,69.02
2023-01-29T16:23:35.088Z,69.09
2023-01-29T16:26:02.853Z,69.04
2023-01-29T16:28:30.521Z,69.27
2023-01-29T16:30:58.570Z,69.23
2023-01-29T16:33:26.660Z,69.15
2023-01-29T16:35:54.425Z,68.76
2023-01-29T16:38:22.086Z,68.98
2023-01-29T16:40:49.846Z,68.59
2023-01-29T16:43:17.513Z,68.62
2023-01-29T16:45:45.377Z,68.49
2023-01-29T16:48:13.037Z,68.93
2023-01-29T16:50:54.375Z,68.96
2023-01-29T16:53:24.744Z,68.56
2023-01-29T16:55:52.548Z,68.84
2023-01-29T16:58:20.389Z,69.14
2023-01-29T17:00:48.078Z,68.69
2023-01-29T17:03:15.798Z,68.84
2023-01-29T17:05:43.563Z,68.93
2023-01-29T17:08:11.225Z,68.84
2023-01-29T17:10:38.987Z,68.39
2023-01-29T17:13:06.872Z,68.37
2023-01-29T17:15:34.620Z,68.40
2023-01-29T17:18:02.381Z,68.34
2023-01-29T17:20:30.042Z,68.56
2023-01-29T17:22:57.707Z,68.46
2023-01-29T17:25:25.468Z,68.17
2023-01-29T17:27:53.137Z,68.66
2023-01-29T17:30:20.930Z,68.60
2023-01-29T17:32:48.761Z,68.49
2023-01-29T17:35:17.574Z,68.38
2023-01-29T17:37:45.978Z,68.68
2023-01-29T17:40:13.796Z,68.68
2023-01-29T17:42:41.659Z,68.63
2023-01-29T17:45:11.062Z,68.78
2023-01-29T17:47:38.829Z,68.72
2023-01-29T17:50:06.594Z,68.72
2023-01-29T17:52:34.353Z,68.67
2023-01-29T17:55:02.117Z,68.73
2023-01-29T17:57:32.581Z,68.55
2023-01-29T18:00:00.522Z,68.34
2023-01-29T18:02:28.482Z,68.58
2023-01-29T18:04:57.687Z,68.59
2023-01-29T18:07:25.466Z,68.75
2023-01-29T18:09:53.212Z,68.68
2023-01-29T18:12:20.869Z,68.59
2023-01-29T18:14:48.531Z,68.80
2023-01-29T18:17:22.439Z,68.90
2023-01-29T18:19:50.142Z,68.87
2023-01-29T18:22:17.864Z,69.13
2023-01-29T18:24:45.645Z,68.98
2023-01-29T18:27:13.389Z,68.99
2023-01-29T18:29:41.159Z,68.99
2023-01-29T18:32:08.921Z,68.93
2023-01-29T18:34:36.683Z,69.00
2023-01-29T18:37:04.652Z,69.13
2023-01-29T18:39:32.318Z,68.78
2023-01-29T18:42:00.022Z,68.83
2023-01-29T18:44:29.886Z,68.80
2023-01-29T18:46:57.656Z,68.84
2023-01-29T18:49:25.416Z,69.02
2023-01-29T18:51:53.180Z,68.93
2023-01-29T18:54:21.673Z,68.83
2023-01-29T18:57:12.875Z,68.77
2023-01-29T18:59:37.157Z,68.85
2023-01-29T19:02:05.277Z,68.68
2023-01-29T19:04:33.097Z,68.80
2023-01-29T19:07:00.858Z,69.05
2023-01-29T19:09:28.727Z,69.21
2023-01-29T19:11:56.498Z,69.43
2023-01-29T19:14:24.251Z,69.51
2023-01-29T19:16:51.973Z,69.66
2023-01-29T19:19:20.399Z,69.70
2023-01-29T19:21:48.159Z,69.55
2023-01-29T19:24:16.025Z,69.61
2023-01-29T19:26:43.736Z,69.78
2023-01-29T19:29:11.764Z,69.97
2023-01-29T19:31:39.578Z,70.21
2023-01-29T19:34:07.395Z,70.36
2023-01-29T19:36:35.152Z,70.49
2023-01-29T19:39:02.915Z,70.66
2023-01-29T19:41:30.786Z,70.93
2023-01-29T19:43:58.648Z,70.83
2023-01-29T19:46:26.417Z,70.86
2023-01-29T19:48:57.145Z,71.52
2023-01-29T19:51:24.909Z,71.90
2023-01-29T19:53:52.675Z,71.82
2023-01-29T19:56:20.648Z,71.79
2023-01-29T19:58:48.420Z,71.56
2023-01-29T20:01:16.172Z,71.71
2023-01-29T20:03:46.696Z,71.78
2023-01-29T20:06:14.463Z,71.56
2023-01-29T20:08:42.177Z,71.52
2023-01-29T20:11:10.095Z,71.18
2023-01-29T20:13:37.962Z,71.02
2023-01-29T20:16:05.836Z,71.19
2023-01-29T20:18:33.692Z,71.21
2023-01-29T20:21:01.353Z,71.13
2023-01-29T20:23:37.661Z,71.14
2023-01-29T20:26:06.104Z,71.00
2023-01-29T20:28:34.784Z,70.83
2023-01-29T20:31:03.242Z,70.83
2023-01-29T20:33:32.770Z,70.90
2023-01-29T20:36:00.639Z,70.60
2023-01-29T20:38:31.983Z,70.79
2023-01-29T20:40:59.853Z,70.57
2023-01-29T20:43:27.611Z,70.79
2023-01-29T20:45:55.400Z,70.55
2023-01-29T20:48:23.558Z,70.62
2023-01-29T20:50:51.416Z,70.63
2023-01-29T20:53:19.587Z,70.27
2023-01-29T20:55:47.969Z,70.03
2023-01-29T20:58:15.835Z,70.26
2023-01-29T21:00:43.616Z,70.38
2023-01-29T21:03:11.361Z,70.47
2023-01-29T21:05:39.125Z,70.72
2023-01-29T21:08:06.788Z,71.06
2023-01-29T21:10:34.550Z,71.07
2023-01-29T21:13:02.313Z,71.15
2023-01-29T21:15:30.077Z,70.84
2023-01-29T21:17:59.788Z,70.63
2023-01-29T21:20:27.449Z,70.40
2023-01-29T21:22:55.522Z,70.38
2023-01-29T21:25:23.698Z,70.33
2023-01-29T21:27:51.458Z,70.27
2023-01-29T21:30:19.598Z,70.34
2023-01-29T21:32:47.701Z,70.22
2023-01-29T21:35:16.695Z,69.86
2023-01-29T21:37:44.458Z,69.98
2023-01-29T21:40:12.127Z,69.98
2023-01-29T21:42:58.520Z,69.84
2023-01-29T21:45:26.284Z,70.10
2023-01-29T21:47:54.048Z,70.25
2023-01-29T21:50:21.818Z,70.52
2023-01-29T21:52:49.576Z,70.65
2023-01-29T21:55:17.442Z,70.53
2023-01-29T21:57:46.966Z,70.57
2023-01-29T22:00:14.826Z,70.65
2023-01-29T22:02:42.940Z,70.65
2023-01-29T22:05:18.623Z,70.77
2023-01-29T22:07:47.442Z,71.16
2023-01-29T22:10:15.838Z,71.28
2023-01-29T22:12:44.900Z,71.47
2023-01-29T22:15:12.659Z,71.45
2023-01-29T22:17:41.786Z,71.78
2023-01-29T22:20:09.619Z,71.83
2023-01-29T22:22:37.393Z,71.73
2023-01-29T22:25:05.189Z,71.81
2023-01-29T22:27:33.527Z,71.79
2023-01-29T22:30:01.293Z,71.63
2023-01-29T22:32:29.091Z,71.73
2023-01-29T22:34:56.923Z,71.72
2023-01-29T22:37:24.687Z,71.49
2023-01-29T22:39:52.452Z,71.55
2023-01-29T22:42:20.891Z,71.47
2023-01-29T22:44:48.910Z,71.46
2023-01-29T22:47:16.663Z,71.64
2023-01-29T22:49:45.780Z,71.23
2023-01-29T22:52:13.902Z,71.16
2023-01-29T22:54:41.599Z,71.31
2023-01-29T22:57:10.328Z,71.23
2023-01-29T22:59:38.042Z,71.34
2023-01-29T23:02:07.955Z,71.58
2023-01-29T23:04:35.736Z,71.48
2023-01-29T23:07:03.596Z,71.28
2023-01-29T23:09:31.280Z,71.33
2023-01-29T23:11:59.016Z,71.29
2023-01-29T23:14:26.674Z,71.30
2023-01-29T23:16:54.440Z,71.11
2023-01-29T23:19:22.203Z,71.17
2023-01-29T23:21:49.976Z,71.15
2023-01-29T23:24:17.729Z,70.99
2023-01-29T23:27:04.437Z,71.16
2023-01-29T23:29:32.200Z,71.26
2023-01-29T23:31:59.892Z,71.22
2023-01-29T23:34:27.630Z,71.05
2023-01-29T23:36:55.391Z,71.17
2023-01-29T23:39:23.154Z,71.19
2023-01-29T23:41:50.930Z,70.95
2023-01-29T23:44:18.784Z,70.76
2023-01-29T23:46:46.481Z,70.80
2023-01-29T23:49:14.209Z,70.99
2023-01-29T23:51:41.974Z,70.87
2023-01-29T23:54:09.639Z,71.02
2023-01-29T23:56:37.297Z,70.94
2023-01-29T23:59:05.063Z,70.91
